sensor_id;sensor_type;location;lat;lon;timestamp;temperature;humidity
17954;DHT22;9102;53.548;9.926;2023-08-06T00:02:07;15.30;99.90
17954;DHT22;9102;53.548;9.926;2023-08-06T00:04:34;15.20;99.90
17954;DHT22;9102;53.548;9.926;2023-08-06T00:07:01;15.10;99.90
17954;DHT22;9102;53.548;9.926;2023-08-06T00:09:27;15.00;99.90
17954;DHT22;9102;53.548;9.926;2023-08-06T00:11:54;15.10;99.90
17954;DHT22;9102;53.548;9.926;2023-08-06T00:14:21;15.10;99.90
17954;DHT22;9102;53.548;9.926;2023-08-06T00:16:48;15.20;99.90
17954;DHT22;9102;53.548;9.926;2023-08-06T00:19:16;15.20;99.90
17954;DHT22;9102;53.548;9.926;2023-08-06T00:21:43;15.20;99.90
17954;DHT22;9102;53.548;9.926;2023-08-06T00:24:09;15.20;99.90
17954;DHT22;9102;53.548;9.926;2023-08-06T00:26:36;15.30;99.90
17954;DHT22;9102;53.548;9.926;2023-08-06T00:29:03;15.30;99.90
17954;DHT22;9102;53.548;9.926;2023-08-06T00:31:30;15.40;99.90
17954;DHT22;9102;53.548;9.926;2023-08-06T00:33:56;15.40;99.90
17954;DHT22;9102;53.548;9.926;2023-08-06T00:36:25;15.40;99.90
17954;DHT22;9102;53.548;9.926;2023-08-06T00:38:51;15.40;99.90
17954;DHT22;9102;53.548;9.926;2023-08-06T00:41:18;15.40;99.90
17954;DHT22;9102;53.548;9.926;2023-08-06T00:43:45;15.30;99.90
17954;DHT22;9102;53.548;9.926;2023-08-06T00:46:12;15.40;99.90
17954;DHT22;9102;53.548;9.926;2023-08-06T00:48:40;15.40;99.90
17954;DHT22;9102;53.548;9.926;2023-08-06T00:51:08;15.30;99.90
17954;DHT22;9102;53.548;9.926;2023-08-06T00:53:37;15.40;99.90
17954;DHT22;9102;53.548;9.926;2023-08-06T00:56:04;15.40;99.90
17954;DHT22;9102;53.548;9.926;2023-08-06T00:58:31;15.40;99.90
17954;DHT22;9102;53.548;9.926;2023-08-06T01:00:58;15.40;99.90
17954;DHT22;9102;53.548;9.926;2023-08-06T01:03:25;15.30;99.90
17954;DHT22;9102;53.548;9.926;2023-08-06T01:05:52;15.30;99.90
17954;DHT22;9102;53.548;9.926;2023-08-06T01:08:30;15.30;99.90
17954;DHT22;9102;53.548;9.926;2023-08-06T01:11:14;15.30;99.90
17954;DHT22;9102;53.548;9.926;2023-08-06T01:13:46;15.30;99.90
17954;DHT22;9102;53.548;9.926;2023-08-06T01:16:16;15.30;99.90
17954;DHT22;9102;53.548;9.926;2023-08-06T01:18:43;15.40;99.90
17954;DHT22;9102;53.548;9.926;2023-08-06T01:21:13;15.40;99.90
17954;DHT22;9102;53.548;9.926;2023-08-06T01:23:40;15.40;99.90
17954;DHT22;9102;53.548;9.926;2023-08-06T01:26:14;15.60;99.90
17954;DHT22;9102;53.548;9.926;2023-08-06T01:28:46;15.50;99.90
17954;DHT22;9102;53.548;9.926;2023-08-06T01:31:18;15.50;99.90
17954;DHT22;9102;53.548;9.926;2023-08-06T01:33:47;15.50;99.90
17954;DHT22;9102;53.548;9.926;2023-08-06T01:36:16;15.50;99.90
17954;DHT22;9102;53.548;9.926;2023-08-06T01:38:44;15.50;99.90
17954;DHT22;9102;53.548;9.926;2023-08-06T01:41:11;15.60;99.90
17954;DHT22;9102;53.548;9.926;2023-08-06T01:43:38;15.60;99.90
17954;DHT22;9102;53.548;9.926;2023-08-06T01:46:04;15.60;99.90
17954;DHT22;9102;53.548;9.926;2023-08-06T01:48:31;15.60;99.90
17954;DHT22;9102;53.548;9.926;2023-08-06T01:50:58;15.50;99.90
17954;DHT22;9102;53.548;9.926;2023-08-06T01:53:26;15.50;99.90
17954;DHT22;9102;53.548;9.926;2023-08-06T01:55:53;15.60;99.90
17954;DHT22;9102;53.548;9.926;2023-08-06T01:58:19;15.50;99.90
17954;DHT22;9102;53.548;9.926;2023-08-06T02:00:46;15.50;99.90
17954;DHT22;9102;53.548;9.926;2023-08-06T02:03:13;15.60;99.90
17954;DHT22;9102;53.548;9.926;2023-08-06T02:05:40;15.50;99.90
17954;DHT22;9102;53.548;9.926;2023-08-06T02:08:07;15.60;99.90
17954;DHT22;9102;53.548;9.926;2023-08-06T02:10:35;15.60;99.90
17954;DHT22;9102;53.548;9.926;2023-08-06T02:13:02;15.60;99.90
17954;DHT22;9102;53.548;9.926;2023-08-06T02:15:29;15.60;99.90
17954;DHT22;9102;53.548;9.926;2023-08-06T02:17:55;15.60;99.90
17954;DHT22;9102;53.548;9.926;2023-08-06T02:20:22;15.60;99.90
17954;DHT22;9102;53.548;9.926;2023-08-06T02:22:49;15.50;99.90
17954;DHT22;9102;53.548;9.926;2023-08-06T02:25:16;15.50;99.90
17954;DHT22;9102;53.548;9.926;2023-08-06T02:27:44;15.40;99.90
17954;DHT22;9102;53.548;9.926;2023-08-06T02:30:11;15.40;99.90
17954;DHT22;9102;53.548;9.926;2023-08-06T02:32:38;15.40;99.90
17954;DHT22;9102;53.548;9.926;2023-08-06T02:35:05;15.50;99.90
17954;DHT22;9102;53.548;9.926;2023-08-06T02:37:33;15.50;99.90
17954;DHT22;9102;53.548;9.926;2023-08-06T02:40:00;15.40;99.90
17954;DHT22;9102;53.548;9.926;2023-08-06T02:42:27;15.50;99.90
17954;DHT22;9102;53.548;9.926;2023-08-06T02:44:55;15.40;99.90
17954;DHT22;9102;53.548;9.926;2023-08-06T02:47:22;15.50;99.90
17954;DHT22;9102;53.548;9.926;2023-08-06T02:49:49;15.40;99.90
17954;DHT22;9102;53.548;9.926;2023-08-06T02:52:16;15.40;99.90
17954;DHT22;9102;53.548;9.926;2023-08-06T02:54:43;15.40;99.90
17954;DHT22;9102;53.548;9.926;2023-08-06T02:57:09;15.40;99.90
17954;DHT22;9102;53.548;9.926;2023-08-06T02:59:36;15.50;99.90
17954;DHT22;9102;53.548;9.926;2023-08-06T03:02:05;15.50;99.90
17954;DHT22;9102;53.548;9.926;2023-08-06T03:04:32;15.60;99.90
17954;DHT22;9102;53.548;9.926;2023-08-06T03:06:58;15.60;99.90
17954;DHT22;9102;53.548;9.926;2023-08-06T03:09:25;15.50;99.90
17954;DHT22;9102;53.548;9.926;2023-08-06T03:11:52;15.60;99.90
17954;DHT22;9102;53.548;9.926;2023-08-06T03:14:19;15.50;99.90
17954;DHT22;9102;53.548;9.926;2023-08-06T03:16:45;15.50;99.90
17954;DHT22;9102;53.548;9.926;2023-08-06T03:19:13;15.40;99.90
17954;DHT22;9102;53.548;9.926;2023-08-06T03:21:40;15.50;99.90
17954;DHT22;9102;53.548;9.926;2023-08-06T03:24:07;15.50;99.90
17954;DHT22;9102;53.548;9.926;2023-08-06T03:26:34;15.50;99.90
17954;DHT22;9102;53.548;9.926;2023-08-06T03:29:00;15.50;99.90
17954;DHT22;9102;53.548;9.926;2023-08-06T03:31:27;15.50;99.90
17954;DHT22;9102;53.548;9.926;2023-08-06T03:33:54;15.50;99.90
17954;DHT22;9102;53.548;9.926;2023-08-06T03:36:22;15.50;99.90
17954;DHT22;9102;53.548;9.926;2023-08-06T03:38:49;15.50;99.90
17954;DHT22;9102;53.548;9.926;2023-08-06T03:41:16;15.50;99.90
17954;DHT22;9102;53.548;9.926;2023-08-06T03:43:42;15.50;99.90
17954;DHT22;9102;53.548;9.926;2023-08-06T03:46:09;15.50;99.90
17954;DHT22;9102;53.548;9.926;2023-08-06T03:48:36;15.50;99.90
17954;DHT22;9102;53.548;9.926;2023-08-06T03:51:03;15.50;99.90
17954;DHT22;9102;53.548;9.926;2023-08-06T03:53:31;15.50;99.90
17954;DHT22;9102;53.548;9.926;2023-08-06T03:55:58;15.40;99.90
17954;DHT22;9102;53.548;9.926;2023-08-06T03:58:26;15.50;99.90
17954;DHT22;9102;53.548;9.926;2023-08-06T04:00:58;15.50;99.90
17954;DHT22;9102;53.548;9.926;2023-08-06T04:03:25;15.50;99.90
17954;DHT22;9102;53.548;9.926;2023-08-06T04:05:52;15.50;99.90
17954;DHT22;9102;53.548;9.926;2023-08-06T04:08:19;15.50;99.90
17954;DHT22;9102;53.548;9.926;2023-08-06T04:10:49;15.50;99.90
17954;DHT22;9102;53.548;9.926;2023-08-06T04:13:16;15.50;99.90
17954;DHT22;9102;53.548;9.926;2023-08-06T04:15:42;15.50;99.90
17954;DHT22;9102;53.548;9.926;2023-08-06T04:18:09;15.50;99.90
17954;DHT22;9102;53.548;9.926;2023-08-06T04:20:42;15.50;99.90
17954;DHT22;9102;53.548;9.926;2023-08-06T04:23:09;15.60;99.90
17954;DHT22;9102;53.548;9.926;2023-08-06T04:25:36;15.60;99.90
17954;DHT22;9102;53.548;9.926;2023-08-06T04:28:04;15.50;99.90
17954;DHT22;9102;53.548;9.926;2023-08-06T04:30:31;15.50;99.90
17954;DHT22;9102;53.548;9.926;2023-08-06T04:32:58;15.50;99.90
17954;DHT22;9102;53.548;9.926;2023-08-06T04:35:25;15.50;99.90
17954;DHT22;9102;53.548;9.926;2023-08-06T04:37:51;15.40;99.90
17954;DHT22;9102;53.548;9.926;2023-08-06T04:40:18;15.50;99.90
17954;DHT22;9102;53.548;9.926;2023-08-06T04:42:45;15.50;99.90
17954;DHT22;9102;53.548;9.926;2023-08-06T04:45:14;15.50;99.90
17954;DHT22;9102;53.548;9.926;2023-08-06T04:47:41;15.40;99.90
17954;DHT22;9102;53.548;9.926;2023-08-06T04:50:08;15.40;99.90
17954;DHT22;9102;53.548;9.926;2023-08-06T04:52:35;15.50;99.90
17954;DHT22;9102;53.548;9.926;2023-08-06T04:55:02;15.50;99.90
17954;DHT22;9102;53.548;9.926;2023-08-06T04:57:31;15.50;99.90
17954;DHT22;9102;53.548;9.926;2023-08-06T04:59:58;15.50;99.90
17954;DHT22;9102;53.548;9.926;2023-08-06T05:02:26;15.60;99.90
17954;DHT22;9102;53.548;9.926;2023-08-06T05:04:52;15.50;99.90
17954;DHT22;9102;53.548;9.926;2023-08-06T05:07:19;15.60;99.90
17954;DHT22;9102;53.548;9.926;2023-08-06T05:09:46;15.60;99.90
17954;DHT22;9102;53.548;9.926;2023-08-06T05:12:13;15.60;99.90
17954;DHT22;9102;53.548;9.926;2023-08-06T05:14:40;15.70;99.90
17954;DHT22;9102;53.548;9.926;2023-08-06T05:17:06;15.70;99.90
17954;DHT22;9102;53.548;9.926;2023-08-06T05:19:34;15.70;99.90
17954;DHT22;9102;53.548;9.926;2023-08-06T05:22:01;15.70;99.90
17954;DHT22;9102;53.548;9.926;2023-08-06T05:24:28;15.70;99.90
17954;DHT22;9102;53.548;9.926;2023-08-06T05:26:55;15.70;99.90
17954;DHT22;9102;53.548;9.926;2023-08-06T05:29:22;15.70;99.90
17954;DHT22;9102;53.548;9.926;2023-08-06T05:31:48;15.80;99.90
17954;DHT22;9102;53.548;9.926;2023-08-06T05:34:15;15.70;99.90
17954;DHT22;9102;53.548;9.926;2023-08-06T05:36:43;15.70;99.90
17954;DHT22;9102;53.548;9.926;2023-08-06T05:39:10;15.80;99.90
17954;DHT22;9102;53.548;9.926;2023-08-06T05:41:37;15.70;99.90
17954;DHT22;9102;53.548;9.926;2023-08-06T05:44:04;15.70;99.90
17954;DHT22;9102;53.548;9.926;2023-08-06T05:46:31;15.90;99.90
17954;DHT22;9102;53.548;9.926;2023-08-06T05:48:57;15.90;99.90
17954;DHT22;9102;53.548;9.926;2023-08-06T05:51:26;15.90;99.90
17954;DHT22;9102;53.548;9.926;2023-08-06T05:53:54;15.90;99.90
17954;DHT22;9102;53.548;9.926;2023-08-06T05:56:21;16.00;99.90
17954;DHT22;9102;53.548;9.926;2023-08-06T05:58:47;16.10;99.90
17954;DHT22;9102;53.548;9.926;2023-08-06T06:01:16;16.10;99.90
17954;DHT22;9102;53.548;9.926;2023-08-06T06:03:43;16.20;99.90
17954;DHT22;9102;53.548;9.926;2023-08-06T06:06:10;16.30;99.90
17954;DHT22;9102;53.548;9.926;2023-08-06T06:08:37;16.30;99.90
17954;DHT22;9102;53.548;9.926;2023-08-06T06:11:05;16.20;99.90
17954;DHT22;9102;53.548;9.926;2023-08-06T06:13:32;16.10;99.90
17954;DHT22;9102;53.548;9.926;2023-08-06T06:15:58;16.20;99.90
17954;DHT22;9102;53.548;9.926;2023-08-06T06:18:25;16.10;99.90
17954;DHT22;9102;53.548;9.926;2023-08-06T06:20:52;16.00;99.90
17954;DHT22;9102;53.548;9.926;2023-08-06T06:23:19;16.00;99.90
17954;DHT22;9102;53.548;9.926;2023-08-06T06:25:47;16.00;99.90
17954;DHT22;9102;53.548;9.926;2023-08-06T06:28:16;15.90;99.90
17954;DHT22;9102;53.548;9.926;2023-08-06T06:30:43;16.00;99.90
17954;DHT22;9102;53.548;9.926;2023-08-06T06:33:10;16.00;99.90
17954;DHT22;9102;53.548;9.926;2023-08-06T06:35:37;16.10;99.90
17954;DHT22;9102;53.548;9.926;2023-08-06T06:38:04;16.20;99.90
17954;DHT22;9102;53.548;9.926;2023-08-06T06:40:30;16.30;99.90
17954;DHT22;9102;53.548;9.926;2023-08-06T06:42:58;16.30;99.90
17954;DHT22;9102;53.548;9.926;2023-08-06T06:45:26;16.30;99.90
17954;DHT22;9102;53.548;9.926;2023-08-06T06:47:53;16.40;99.90
17954;DHT22;9102;53.548;9.926;2023-08-06T06:50:20;16.50;99.90
17954;DHT22;9102;53.548;9.926;2023-08-06T06:52:47;16.50;99.90
17954;DHT22;9102;53.548;9.926;2023-08-06T06:55:13;16.50;99.90
17954;DHT22;9102;53.548;9.926;2023-08-06T06:57:40;16.70;99.90
17954;DHT22;9102;53.548;9.926;2023-08-06T07:00:07;16.60;99.90
17954;DHT22;9102;53.548;9.926;2023-08-06T07:02:36;16.70;99.90
17954;DHT22;9102;53.548;9.926;2023-08-06T07:05:03;16.90;99.90
17954;DHT22;9102;53.548;9.926;2023-08-06T07:07:29;17.10;99.90
17954;DHT22;9102;53.548;9.926;2023-08-06T07:09:56;17.30;99.90
17954;DHT22;9102;53.548;9.926;2023-08-06T07:12:23;17.30;99.90
17954;DHT22;9102;53.548;9.926;2023-08-06T07:14:50;17.40;99.90
17954;DHT22;9102;53.548;9.926;2023-08-06T07:17:17;17.40;99.90
17954;DHT22;9102;53.548;9.926;2023-08-06T07:19:45;17.40;99.90
17954;DHT22;9102;53.548;9.926;2023-08-06T07:22:12;17.70;99.90
17954;DHT22;9102;53.548;9.926;2023-08-06T07:24:38;17.80;99.90
17954;DHT22;9102;53.548;9.926;2023-08-06T07:27:06;18.00;99.90
17954;DHT22;9102;53.548;9.926;2023-08-06T07:29:33;18.10;99.90
17954;DHT22;9102;53.548;9.926;2023-08-06T07:31:59;18.10;99.90
17954;DHT22;9102;53.548;9.926;2023-08-06T07:34:26;18.30;99.90
17954;DHT22;9102;53.548;9.926;2023-08-06T07:36:54;18.30;99.90
17954;DHT22;9102;53.548;9.926;2023-08-06T07:39:21;18.40;99.90
17954;DHT22;9102;53.548;9.926;2023-08-06T07:41:49;18.50;99.90
17954;DHT22;9102;53.548;9.926;2023-08-06T07:44:16;18.70;99.90
17954;DHT22;9102;53.548;9.926;2023-08-06T07:46:42;18.70;99.90
17954;DHT22;9102;53.548;9.926;2023-08-06T07:49:09;18.90;99.90
17954;DHT22;9102;53.548;9.926;2023-08-06T07:51:37;19.10;99.90
17954;DHT22;9102;53.548;9.926;2023-08-06T07:54:06;19.00;99.90
17954;DHT22;9102;53.548;9.926;2023-08-06T07:56:32;19.10;99.90
17954;DHT22;9102;53.548;9.926;2023-08-06T07:59:01;19.10;99.90
17954;DHT22;9102;53.548;9.926;2023-08-06T08:01:28;19.00;99.90
17954;DHT22;9102;53.548;9.926;2023-08-06T08:03:55;18.90;99.90
17954;DHT22;9102;53.548;9.926;2023-08-06T08:06:22;18.90;99.90
17954;DHT22;9102;53.548;9.926;2023-08-06T08:08:49;18.90;99.90
17954;DHT22;9102;53.548;9.926;2023-08-06T08:11:20;19.00;99.90
17954;DHT22;9102;53.548;9.926;2023-08-06T08:13:46;19.10;99.90
17954;DHT22;9102;53.548;9.926;2023-08-06T08:16:13;19.00;99.90
17954;DHT22;9102;53.548;9.926;2023-08-06T08:18:40;19.10;99.90
17954;DHT22;9102;53.548;9.926;2023-08-06T08:21:07;19.10;99.90
17954;DHT22;9102;53.548;9.926;2023-08-06T08:23:33;19.30;99.90
17954;DHT22;9102;53.548;9.926;2023-08-06T08:26:00;19.00;99.90
17954;DHT22;9102;53.548;9.926;2023-08-06T08:28:29;18.70;99.90
17954;DHT22;9102;53.548;9.926;2023-08-06T08:30:55;18.60;99.90
17954;DHT22;9102;53.548;9.926;2023-08-06T08:33:22;18.40;99.90
17954;DHT22;9102;53.548;9.926;2023-08-06T08:35:49;18.40;99.90
17954;DHT22;9102;53.548;9.926;2023-08-06T08:38:16;18.20;99.90
17954;DHT22;9102;53.548;9.926;2023-08-06T08:40:46;18.40;99.90
17954;DHT22;9102;53.548;9.926;2023-08-06T08:43:14;18.60;99.90
17954;DHT22;9102;53.548;9.926;2023-08-06T08:45:43;18.60;99.90
17954;DHT22;9102;53.548;9.926;2023-08-06T08:48:12;18.80;99.90
17954;DHT22;9102;53.548;9.926;2023-08-06T08:50:41;18.90;99.90
17954;DHT22;9102;53.548;9.926;2023-08-06T08:53:08;19.00;99.90
17954;DHT22;9102;53.548;9.926;2023-08-06T08:55:38;19.00;99.90
17954;DHT22;9102;53.548;9.926;2023-08-06T08:58:05;19.10;99.90
17954;DHT22;9102;53.548;9.926;2023-08-06T09:00:32;18.90;99.90
17954;DHT22;9102;53.548;9.926;2023-08-06T09:03:05;18.80;99.90
17954;DHT22;9102;53.548;9.926;2023-08-06T09:05:32;18.80;99.90
17954;DHT22;9102;53.548;9.926;2023-08-06T09:08:03;18.90;99.90
17954;DHT22;9102;53.548;9.926;2023-08-06T09:10:30;18.80;99.90
17954;DHT22;9102;53.548;9.926;2023-08-06T09:12:58;18.90;99.90
17954;DHT22;9102;53.548;9.926;2023-08-06T09:15:27;19.00;99.90
17954;DHT22;9102;53.548;9.926;2023-08-06T09:17:54;18.80;99.90
17954;DHT22;9102;53.548;9.926;2023-08-06T09:20:22;18.60;99.90
17954;DHT22;9102;53.548;9.926;2023-08-06T09:22:52;18.60;99.90
17954;DHT22;9102;53.548;9.926;2023-08-06T09:25:21;18.80;99.90
17954;DHT22;9102;53.548;9.926;2023-08-06T09:27:51;18.60;99.90
17954;DHT22;9102;53.548;9.926;2023-08-06T09:30:29;18.50;99.90
17954;DHT22;9102;53.548;9.926;2023-08-06T09:32:56;18.40;99.90
17954;DHT22;9102;53.548;9.926;2023-08-06T09:35:27;18.40;99.90
17954;DHT22;9102;53.548;9.926;2023-08-06T09:37:54;18.30;99.90
17954;DHT22;9102;53.548;9.926;2023-08-06T09:40:28;18.20;99.90
17954;DHT22;9102;53.548;9.926;2023-08-06T09:42:55;18.10;99.90
17954;DHT22;9102;53.548;9.926;2023-08-06T09:45:22;18.00;99.90
17954;DHT22;9102;53.548;9.926;2023-08-06T09:47:49;18.00;99.90
17954;DHT22;9102;53.548;9.926;2023-08-06T09:50:17;17.90;99.90
17954;DHT22;9102;53.548;9.926;2023-08-06T09:52:46;18.00;99.90
17954;DHT22;9102;53.548;9.926;2023-08-06T09:55:14;18.00;99.90
17954;DHT22;9102;53.548;9.926;2023-08-06T09:57:41;18.10;99.90
17954;DHT22;9102;53.548;9.926;2023-08-06T10:00:10;18.20;99.90
17954;DHT22;9102;53.548;9.926;2023-08-06T10:02:38;18.10;99.90
17954;DHT22;9102;53.548;9.926;2023-08-06T10:05:05;18.20;99.90
17954;DHT22;9102;53.548;9.926;2023-08-06T10:07:32;18.40;99.90
17954;DHT22;9102;53.548;9.926;2023-08-06T10:10:00;18.40;99.90
17954;DHT22;9102;53.548;9.926;2023-08-06T10:12:29;18.30;99.90
17954;DHT22;9102;53.548;9.926;2023-08-06T10:15:01;18.20;99.90
17954;DHT22;9102;53.548;9.926;2023-08-06T10:17:31;18.30;99.90
17954;DHT22;9102;53.548;9.926;2023-08-06T10:19:59;18.30;99.90
17954;DHT22;9102;53.548;9.926;2023-08-06T10:22:26;18.40;99.90
17954;DHT22;9102;53.548;9.926;2023-08-06T10:24:55;18.50;99.90
17954;DHT22;9102;53.548;9.926;2023-08-06T10:27:29;18.70;99.90
17954;DHT22;9102;53.548;9.926;2023-08-06T10:30:21;18.70;99.90
17954;DHT22;9102;53.548;9.926;2023-08-06T10:32:48;18.60;99.90
17954;DHT22;9102;53.548;9.926;2023-08-06T10:35:33;18.70;99.90
17954;DHT22;9102;53.548;9.926;2023-08-06T10:38:05;18.80;99.90
17954;DHT22;9102;53.548;9.926;2023-08-06T10:40:32;18.90;99.90
17954;DHT22;9102;53.548;9.926;2023-08-06T10:43:02;18.90;99.90
17954;DHT22;9102;53.548;9.926;2023-08-06T10:45:29;18.80;99.90
17954;DHT22;9102;53.548;9.926;2023-08-06T10:47:57;18.80;99.90
17954;DHT22;9102;53.548;9.926;2023-08-06T10:50:24;18.80;99.90
17954;DHT22;9102;53.548;9.926;2023-08-06T10:52:51;18.80;99.90
17954;DHT22;9102;53.548;9.926;2023-08-06T10:55:26;18.90;99.90
17954;DHT22;9102;53.548;9.926;2023-08-06T10:57:54;18.80;99.90
17954;DHT22;9102;53.548;9.926;2023-08-06T11:00:23;18.80;99.90
17954;DHT22;9102;53.548;9.926;2023-08-06T11:02:51;18.50;99.90
17954;DHT22;9102;53.548;9.926;2023-08-06T11:05:18;18.60;99.90
17954;DHT22;9102;53.548;9.926;2023-08-06T11:07:45;18.80;99.90
17954;DHT22;9102;53.548;9.926;2023-08-06T11:10:14;18.90;99.90
17954;DHT22;9102;53.548;9.926;2023-08-06T11:12:40;18.90;99.90
17954;DHT22;9102;53.548;9.926;2023-08-06T11:15:08;19.00;99.90
17954;DHT22;9102;53.548;9.926;2023-08-06T11:17:37;19.10;99.90
17954;DHT22;9102;53.548;9.926;2023-08-06T11:20:06;19.10;99.90
17954;DHT22;9102;53.548;9.926;2023-08-06T11:22:33;18.80;99.90
17954;DHT22;9102;53.548;9.926;2023-08-06T11:25:00;18.60;99.90
17954;DHT22;9102;53.548;9.926;2023-08-06T11:27:27;18.40;99.90
17954;DHT22;9102;53.548;9.926;2023-08-06T11:29:55;18.50;99.90
17954;DHT22;9102;53.548;9.926;2023-08-06T11:32:21;18.70;99.90
17954;DHT22;9102;53.548;9.926;2023-08-06T11:34:50;18.80;99.90
17954;DHT22;9102;53.548;9.926;2023-08-06T11:37:20;18.70;99.90
17954;DHT22;9102;53.548;9.926;2023-08-06T11:39:49;18.90;99.90
17954;DHT22;9102;53.548;9.926;2023-08-06T11:42:16;19.10;99.90
17954;DHT22;9102;53.548;9.926;2023-08-06T11:44:43;19.20;99.90
17954;DHT22;9102;53.548;9.926;2023-08-06T11:47:13;19.20;99.90
17954;DHT22;9102;53.548;9.926;2023-08-06T11:49:44;19.00;99.90
17954;DHT22;9102;53.548;9.926;2023-08-06T11:52:17;18.80;99.90
17954;DHT22;9102;53.548;9.926;2023-08-06T11:54:46;18.70;99.90
17954;DHT22;9102;53.548;9.926;2023-08-06T11:57:14;18.70;99.90
17954;DHT22;9102;53.548;9.926;2023-08-06T11:59:41;18.60;99.90
17954;DHT22;9102;53.548;9.926;2023-08-06T12:02:09;18.70;99.90
17954;DHT22;9102;53.548;9.926;2023-08-06T12:05:02;18.70;99.90
17954;DHT22;9102;53.548;9.926;2023-08-06T12:07:32;18.50;99.90
17954;DHT22;9102;53.548;9.926;2023-08-06T12:09:59;18.40;99.90
17954;DHT22;9102;53.548;9.926;2023-08-06T12:12:27;18.30;99.90
17954;DHT22;9102;53.548;9.926;2023-08-06T12:14:54;18.20;99.90
17954;DHT22;9102;53.548;9.926;2023-08-06T12:17:24;18.20;99.90
17954;DHT22;9102;53.548;9.926;2023-08-06T12:26:59;18.30;99.90
17954;DHT22;9102;53.548;9.926;2023-08-06T12:29:28;18.30;99.90
17954;DHT22;9102;53.548;9.926;2023-08-06T12:31:54;18.30;99.90
17954;DHT22;9102;53.548;9.926;2023-08-06T12:34:21;18.30;99.90
17954;DHT22;9102;53.548;9.926;2023-08-06T12:36:48;18.30;99.90
17954;DHT22;9102;53.548;9.926;2023-08-06T12:39:15;18.30;99.90
17954;DHT22;9102;53.548;9.926;2023-08-06T12:41:42;18.30;99.90
17954;DHT22;9102;53.548;9.926;2023-08-06T12:44:12;18.30;99.90
17954;DHT22;9102;53.548;9.926;2023-08-06T12:46:39;18.30;99.90
17954;DHT22;9102;53.548;9.926;2023-08-06T12:49:06;18.50;99.90
17954;DHT22;9102;53.548;9.926;2023-08-06T12:51:33;18.50;99.90
17954;DHT22;9102;53.548;9.926;2023-08-06T12:54:00;18.80;99.90
17954;DHT22;9102;53.548;9.926;2023-08-06T12:56:26;19.00;99.90
17954;DHT22;9102;53.548;9.926;2023-08-06T12:58:54;19.10;99.90
17954;DHT22;9102;53.548;9.926;2023-08-06T13:01:22;19.10;99.90
17954;DHT22;9102;53.548;9.926;2023-08-06T13:03:49;19.10;99.90
17954;DHT22;9102;53.548;9.926;2023-08-06T13:06:16;19.10;99.90
17954;DHT22;9102;53.548;9.926;2023-08-06T13:08:43;19.20;99.90
17954;DHT22;9102;53.548;9.926;2023-08-06T13:11:09;19.30;99.90
17954;DHT22;9102;53.548;9.926;2023-08-06T13:13:36;19.30;99.90
17954;DHT22;9102;53.548;9.926;2023-08-06T13:16:03;19.50;99.90
17954;DHT22;9102;53.548;9.926;2023-08-06T13:18:31;19.60;99.90
17954;DHT22;9102;53.548;9.926;2023-08-06T13:20:58;19.70;99.90
17954;DHT22;9102;53.548;9.926;2023-08-06T13:23:25;20.00;99.90
17954;DHT22;9102;53.548;9.926;2023-08-06T13:25:52;20.20;99.90
17954;DHT22;9102;53.548;9.926;2023-08-06T13:28:19;20.30;99.90
17954;DHT22;9102;53.548;9.926;2023-08-06T13:30:46;20.40;99.90
17954;DHT22;9102;53.548;9.926;2023-08-06T13:33:13;20.30;99.90
17954;DHT22;9102;53.548;9.926;2023-08-06T13:35:41;20.20;99.90
17954;DHT22;9102;53.548;9.926;2023-08-06T13:38:08;20.00;99.90
17954;DHT22;9102;53.548;9.926;2023-08-06T13:40:35;19.90;99.90
17954;DHT22;9102;53.548;9.926;2023-08-06T13:43:02;20.00;99.90
17954;DHT22;9102;53.548;9.926;2023-08-06T13:45:29;19.70;99.90
17954;DHT22;9102;53.548;9.926;2023-08-06T13:47:56;19.50;99.90
17954;DHT22;9102;53.548;9.926;2023-08-06T13:50:23;19.50;99.90
17954;DHT22;9102;53.548;9.926;2023-08-06T13:52:53;19.50;99.90
17954;DHT22;9102;53.548;9.926;2023-08-06T13:55:21;19.50;99.90
17954;DHT22;9102;53.548;9.926;2023-08-06T13:57:48;19.60;99.90
17954;DHT22;9102;53.548;9.926;2023-08-06T14:00:15;19.60;99.90
17954;DHT22;9102;53.548;9.926;2023-08-06T14:02:41;19.60;99.90
17954;DHT22;9102;53.548;9.926;2023-08-06T14:05:10;19.60;99.90
17954;DHT22;9102;53.548;9.926;2023-08-06T14:07:37;19.70;99.90
17954;DHT22;9102;53.548;9.926;2023-08-06T14:10:06;19.90;99.90
17954;DHT22;9102;53.548;9.926;2023-08-06T14:12:34;20.00;99.90
17954;DHT22;9102;53.548;9.926;2023-08-06T14:15:01;20.00;99.90
17954;DHT22;9102;53.548;9.926;2023-08-06T14:17:28;19.80;99.90
17954;DHT22;9102;53.548;9.926;2023-08-06T14:19:55;19.70;99.90
17954;DHT22;9102;53.548;9.926;2023-08-06T14:22:22;19.50;99.90
17954;DHT22;9102;53.548;9.926;2023-08-06T14:24:49;19.60;99.90
17954;DHT22;9102;53.548;9.926;2023-08-06T14:27:17;19.30;99.90
17954;DHT22;9102;53.548;9.926;2023-08-06T14:29:44;18.90;99.90
17954;DHT22;9102;53.548;9.926;2023-08-06T14:32:11;18.80;99.90
17954;DHT22;9102;53.548;9.926;2023-08-06T14:34:37;18.70;99.90
17954;DHT22;9102;53.548;9.926;2023-08-06T14:37:04;18.60;99.90
17954;DHT22;9102;53.548;9.926;2023-08-06T14:39:31;18.20;99.90
17954;DHT22;9102;53.548;9.926;2023-08-06T14:41:58;18.00;99.90
17954;DHT22;9102;53.548;9.926;2023-08-06T14:44:26;17.70;99.90
17954;DHT22;9102;53.548;9.926;2023-08-06T14:46:53;17.60;99.90
17954;DHT22;9102;53.548;9.926;2023-08-06T14:49:20;17.50;99.90
17954;DHT22;9102;53.548;9.926;2023-08-06T14:51:46;17.60;99.90
17954;DHT22;9102;53.548;9.926;2023-08-06T14:54:13;17.60;99.90
17954;DHT22;9102;53.548;9.926;2023-08-06T14:56:40;17.50;99.90
17954;DHT22;9102;53.548;9.926;2023-08-06T14:59:07;17.60;99.90
17954;DHT22;9102;53.548;9.926;2023-08-06T15:01:35;17.50;99.90
17954;DHT22;9102;53.548;9.926;2023-08-06T15:04:02;17.40;99.90
17954;DHT22;9102;53.548;9.926;2023-08-06T15:06:29;17.30;99.90
17954;DHT22;9102;53.548;9.926;2023-08-06T15:08:55;17.30;99.90
17954;DHT22;9102;53.548;9.926;2023-08-06T15:11:26;17.40;99.90
17954;DHT22;9102;53.548;9.926;2023-08-06T15:13:53;17.50;99.90
17954;DHT22;9102;53.548;9.926;2023-08-06T15:16:20;17.50;99.90
17954;DHT22;9102;53.548;9.926;2023-08-06T15:18:48;17.60;99.90
17954;DHT22;9102;53.548;9.926;2023-08-06T15:21:15;17.60;99.90
17954;DHT22;9102;53.548;9.926;2023-08-06T15:23:42;17.80;99.90
17954;DHT22;9102;53.548;9.926;2023-08-06T15:26:09;17.80;99.90
17954;DHT22;9102;53.548;9.926;2023-08-06T15:28:36;17.80;99.90
17954;DHT22;9102;53.548;9.926;2023-08-06T15:31:03;17.90;99.90
17954;DHT22;9102;53.548;9.926;2023-08-06T15:33:33;18.10;99.90
17954;DHT22;9102;53.548;9.926;2023-08-06T15:36:01;18.10;99.90
17954;DHT22;9102;53.548;9.926;2023-08-06T15:38:28;18.20;99.90
17954;DHT22;9102;53.548;9.926;2023-08-06T15:40:55;18.40;99.90
17954;DHT22;9102;53.548;9.926;2023-08-06T15:43:22;18.30;99.90
17954;DHT22;9102;53.548;9.926;2023-08-06T15:45:49;18.60;99.90
17954;DHT22;9102;53.548;9.926;2023-08-06T15:48:16;18.50;99.90
17954;DHT22;9102;53.548;9.926;2023-08-06T15:50:42;18.60;99.90
17954;DHT22;9102;53.548;9.926;2023-08-06T15:53:10;18.60;99.90
17954;DHT22;9102;53.548;9.926;2023-08-06T15:55:37;18.40;99.90